sensor_id;sensor_type;location;lat;lon;timestamp;pressure;altitude;pressure_sealevel;temperature;humidity
30073;BME280;16897;52.422;13.678;2023-03-14T00:02:54;98914.31;;;15.87;58.61
30073;BME280;16897;52.422;13.678;2023-03-14T00:06:56;98922.38;;;15.86;58.56
30073;BME280;16897;52.422;13.678;2023-03-14T00:10:57;98915.63;;;15.75;58.48
30073;BME280;16897;52.422;13.678;2023-03-14T00:14:59;98916.78;;;15.73;58.36
30073;BME280;16897;52.422;13.678;2023-03-14T00:19:01;98929.47;;;15.77;58.44
30073;BME280;16897;52.422;13.678;2023-03-14T00:23:03;98881.84;;;15.62;58.50
30073;BME280;16897;52.422;13.678;2023-03-14T00:27:05;98850.75;;;15.49;58.59
30073;BME280;16897;52.422;13.678;2023-03-14T00:31:07;98868.69;;;15.62;58.61
30073;BME280;16897;52.422;13.678;2023-03-14T00:35:09;98851.75;;;15.57;58.52
30073;BME280;16897;52.422;13.678;2023-03-14T00:39:11;98841.56;;;15.54;58.54
30073;BME280;16897;52.422;13.678;2023-03-14T00:43:12;98858.66;;;15.58;58.51
30073;BME280;16897;52.422;13.678;2023-03-14T00:47:17;98849.47;;;15.54;58.61
30073;BME280;16897;52.422;13.678;2023-03-14T00:51:19;98855.88;;;15.51;58.36
30073;BME280;16897;52.422;13.678;2023-03-14T00:55:21;98859.28;;;15.43;58.50
30073;BME280;16897;52.422;13.678;2023-03-14T00:59:22;98839.06;;;15.36;58.34
30073;BME280;16897;52.422;13.678;2023-03-14T01:03:24;98852.41;;;15.42;58.56
30073;BME280;16897;52.422;13.678;2023-03-14T01:07:26;98819.69;;;15.37;58.46
30073;BME280;16897;52.422;13.678;2023-03-14T01:11:32;98825.75;;;15.37;58.51
30073;BME280;16897;52.422;13.678;2023-03-14T01:15:35;98823.47;;;15.34;58.62
30073;BME280;16897;52.422;13.678;2023-03-14T01:19:37;98817.66;;;15.22;58.52
30073;BME280;16897;52.422;13.678;2023-03-14T01:23:39;98831.81;;;15.21;58.52
30073;BME280;16897;52.422;13.678;2023-03-14T01:27:40;98860.72;;;15.13;58.57
30073;BME280;16897;52.422;13.678;2023-03-14T01:31:43;98884.84;;;15.09;58.54
30073;BME280;16897;52.422;13.678;2023-03-14T01:35:45;98884.88;;;15.17;58.43
30073;BME280;16897;52.422;13.678;2023-03-14T01:39:47;98867.44;;;15.08;58.58
30073;BME280;16897;52.422;13.678;2023-03-14T01:43:49;98841.72;;;14.85;58.61
30073;BME280;16897;52.422;13.678;2023-03-14T01:47:51;98877.47;;;15.12;58.41
30073;BME280;16897;52.422;13.678;2023-03-14T01:56:09;98875.59;;;14.88;58.64
30073;BME280;16897;52.422;13.678;2023-03-14T02:00:17;98879.53;;;14.92;58.55
30073;BME280;16897;52.422;13.678;2023-03-14T02:04:34;98888.91;;;14.95;58.73
30073;BME280;16897;52.422;13.678;2023-03-14T02:08:36;98889.09;;;15.01;58.61
30073;BME280;16897;52.422;13.678;2023-03-14T02:12:49;98869.38;;;14.97;58.60
30073;BME280;16897;52.422;13.678;2023-03-14T02:17:04;98875.66;;;15.04;58.53
30073;BME280;16897;52.422;13.678;2023-03-14T02:21:38;98864.78;;;14.99;58.50
30073;BME280;16897;52.422;13.678;2023-03-14T02:26:06;98840.09;;;14.92;58.55
30073;BME280;16897;52.422;13.678;2023-03-14T02:30:12;98855.22;;;14.98;58.59
30073;BME280;16897;52.422;13.678;2023-03-14T02:34:16;98845.34;;;14.92;58.68
30073;BME280;16897;52.422;13.678;2023-03-14T02:38:39;98853.91;;;14.94;58.77
30073;BME280;16897;52.422;13.678;2023-03-14T02:42:42;98833.19;;;14.83;58.70
30073;BME280;16897;52.422;13.678;2023-03-14T02:46:44;98846.69;;;14.88;58.50
30073;BME280;16897;52.422;13.678;2023-03-14T02:50:47;98836.16;;;14.88;58.46
30073;BME280;16897;52.422;13.678;2023-03-14T02:54:49;98823.81;;;14.80;58.38
30073;BME280;16897;52.422;13.678;2023-03-14T02:58:52;98801.78;;;14.73;58.53
30073;BME280;16897;52.422;13.678;2023-03-14T03:03:20;98801.44;;;14.76;58.68
30073;BME280;16897;52.422;13.678;2023-03-14T03:07:23;98809.19;;;14.78;58.74
30073;BME280;16897;52.422;13.678;2023-03-14T03:11:25;98787.13;;;14.71;58.61
30073;BME280;16897;52.422;13.678;2023-03-14T03:15:26;98777.63;;;14.70;58.60
30073;BME280;16897;52.422;13.678;2023-03-14T03:19:28;98742.78;;;14.59;58.62
30073;BME280;16897;52.422;13.678;2023-03-14T03:23:30;98714.97;;;14.49;58.72
30073;BME280;16897;52.422;13.678;2023-03-14T03:27:33;98716.19;;;14.63;58.64
30073;BME280;16897;52.422;13.678;2023-03-14T03:31:37;98745.44;;;14.68;58.89
30073;BME280;16897;52.422;13.678;2023-03-14T03:35:44;98755.91;;;14.59;58.62
30073;BME280;16897;52.422;13.678;2023-03-14T03:39:46;98771.34;;;14.63;58.68
30073;BME280;16897;52.422;13.678;2023-03-14T03:43:48;98748.69;;;14.53;58.76
30073;BME280;16897;52.422;13.678;2023-03-14T03:47:51;98765.06;;;14.55;58.68
30073;BME280;16897;52.422;13.678;2023-03-14T03:51:53;98760.28;;;14.51;58.62
30073;BME280;16897;52.422;13.678;2023-03-14T03:55:55;98774.31;;;14.59;58.67
30073;BME280;16897;52.422;13.678;2023-03-14T03:59:58;98736.41;;;14.36;58.76
30073;BME280;16897;52.422;13.678;2023-03-14T04:03:59;98742.38;;;14.46;58.64
30073;BME280;16897;52.422;13.678;2023-03-14T04:08:02;98760.28;;;14.51;58.75
30073;BME280;16897;52.422;13.678;2023-03-14T04:12:05;98769.69;;;14.53;58.65
30073;BME280;16897;52.422;13.678;2023-03-14T04:16:30;98754.56;;;14.55;58.67
30073;BME280;16897;52.422;13.678;2023-03-14T04:20:39;98747.44;;;14.39;58.78
30073;BME280;16897;52.422;13.678;2023-03-14T04:24:41;98767.16;;;14.52;58.80
30073;BME280;16897;52.422;13.678;2023-03-14T04:28:42;98756.84;;;14.50;58.63
30073;BME280;16897;52.422;13.678;2023-03-14T04:32:45;98719.69;;;14.37;58.55
30073;BME280;16897;52.422;13.678;2023-03-14T04:36:47;98732.50;;;14.40;58.64
30073;BME280;16897;52.422;13.678;2023-03-14T04:40:53;98726.94;;;14.43;58.83
30073;BME280;16897;52.422;13.678;2023-03-14T04:44:58;98712.97;;;14.34;58.74
30073;BME280;16897;52.422;13.678;2023-03-14T04:49:02;98728.75;;;14.43;58.70
30073;BME280;16897;52.422;13.678;2023-03-14T04:53:04;98689.91;;;14.20;58.57
30073;BME280;16897;52.422;13.678;2023-03-14T04:57:07;98713.94;;;14.42;58.72
30073;BME280;16897;52.422;13.678;2023-03-14T05:01:11;98689.47;;;14.33;58.71
30073;BME280;16897;52.422;13.678;2023-03-14T05:05:22;98674.19;;;14.28;58.79
30073;BME280;16897;52.422;13.678;2023-03-14T05:09:46;98684.06;;;14.34;58.71
30073;BME280;16897;52.422;13.678;2023-03-14T05:14:17;98707.84;;;14.33;58.60
30073;BME280;16897;52.422;13.678;2023-03-14T05:18:34;98698.34;;;14.32;58.68
30073;BME280;16897;52.422;13.678;2023-03-14T05:22:45;98683.38;;;14.24;58.67
30073;BME280;16897;52.422;13.678;2023-03-14T05:26:58;98675.66;;;14.31;58.74
30073;BME280;16897;52.422;13.678;2023-03-14T05:31:18;98666.47;;;14.19;58.61
30073;BME280;16897;52.422;13.678;2023-03-14T05:35:43;98679.28;;;14.30;58.70
30073;BME280;16897;52.422;13.678;2023-03-14T05:40:05;98676.50;;;14.23;58.53
30073;BME280;16897;52.422;13.678;2023-03-14T05:44:22;98664.47;;;14.12;58.57
30073;BME280;16897;52.422;13.678;2023-03-14T05:48:37;98668.88;;;14.12;58.65
30073;BME280;16897;52.422;13.678;2023-03-14T05:52:42;98691.72;;;14.20;58.73
30073;BME280;16897;52.422;13.678;2023-03-14T05:56:55;98680.50;;;14.09;58.58
30073;BME280;16897;52.422;13.678;2023-03-14T06:01:06;98691.88;;;14.18;58.71
30073;BME280;16897;52.422;13.678;2023-03-14T06:05:21;98655.38;;;13.99;58.52
30073;BME280;16897;52.422;13.678;2023-03-14T06:09:26;98677.28;;;14.15;58.75
30073;BME280;16897;52.422;13.678;2023-03-14T06:13:31;98630.59;;;13.93;58.63
30073;BME280;16897;52.422;13.678;2023-03-14T06:17:33;98677.59;;;14.12;58.71
30073;BME280;16897;52.422;13.678;2023-03-14T06:21:38;98676.59;;;14.13;58.58
30073;BME280;16897;52.422;13.678;2023-03-14T06:25:40;98655.50;;;13.89;58.59
30073;BME280;16897;52.422;13.678;2023-03-14T06:29:42;98703.03;;;14.20;58.56
30073;BME280;16897;52.422;13.678;2023-03-14T06:33:43;98676.25;;;14.08;58.54
30073;BME280;16897;52.422;13.678;2023-03-14T06:37:45;98695.66;;;14.15;58.67
30073;BME280;16897;52.422;13.678;2023-03-14T06:41:48;98691.19;;;14.08;58.47
30073;BME280;16897;52.422;13.678;2023-03-14T06:45:50;98685.47;;;14.12;58.53
30073;BME280;16897;52.422;13.678;2023-03-14T06:49:51;98692.38;;;14.22;58.56
30073;BME280;16897;52.422;13.678;2023-03-14T06:53:53;98703.72;;;14.22;58.52
30073;BME280;16897;52.422;13.678;2023-03-14T06:57:57;98703.88;;;14.21;58.55
30073;BME280;16897;52.422;13.678;2023-03-14T07:02:00;98723.22;;;14.20;58.42
30073;BME280;16897;52.422;13.678;2023-03-14T07:06:02;98725.03;;;14.19;58.62
30073;BME280;16897;52.422;13.678;2023-03-14T07:10:04;98738.19;;;14.27;58.49
30073;BME280;16897;52.422;13.678;2023-03-14T07:14:06;98725.53;;;14.23;58.39
30073;BME280;16897;52.422;13.678;2023-03-14T07:18:08;98706.63;;;14.11;58.46
30073;BME280;16897;52.422;13.678;2023-03-14T07:22:10;98725.16;;;14.17;58.38
30073;BME280;16897;52.422;13.678;2023-03-14T07:26:11;98750.56;;;14.43;58.63
30073;BME280;16897;52.422;13.678;2023-03-14T07:30:19;98736.41;;;14.36;58.57
30073;BME280;16897;52.422;13.678;2023-03-14T07:34:21;98705.16;;;14.16;58.45
30073;BME280;16897;52.422;13.678;2023-03-14T07:38:24;98762.25;;;14.49;58.59
30073;BME280;16897;52.422;13.678;2023-03-14T07:42:43;98725.28;;;14.34;58.58
30073;BME280;16897;52.422;13.678;2023-03-14T07:47:05;98714.72;;;14.26;58.39
30073;BME280;16897;52.422;13.678;2023-03-14T07:51:07;98757.66;;;14.51;58.50
30073;BME280;16897;52.422;13.678;2023-03-14T07:55:09;98760.81;;;14.54;58.42
30073;BME280;16897;52.422;13.678;2023-03-14T07:59:11;98763.94;;;14.58;58.41
30073;BME280;16897;52.422;13.678;2023-03-14T08:03:13;98752.78;;;14.56;58.44
30073;BME280;16897;52.422;13.678;2023-03-14T08:07:15;98726.28;;;14.49;58.58
30073;BME280;16897;52.422;13.678;2023-03-14T08:11:16;98726.88;;;14.61;58.37
30073;BME280;16897;52.422;13.678;2023-03-14T08:15:18;98700.84;;;14.50;58.47
30073;BME280;16897;52.422;13.678;2023-03-14T08:19:19;98741.53;;;14.80;58.49
30073;BME280;16897;52.422;13.678;2023-03-14T08:23:22;98733.31;;;14.83;58.47
30073;BME280;16897;52.422;13.678;2023-03-14T08:27:24;98702.94;;;14.80;58.57
30073;BME280;16897;52.422;13.678;2023-03-14T08:31:25;98730.03;;;14.89;58.68
30073;BME280;16897;52.422;13.678;2023-03-14T08:35:27;98710.31;;;14.77;58.50
30073;BME280;16897;52.422;13.678;2023-03-14T08:39:28;98748.44;;;14.97;58.56
30073;BME280;16897;52.422;13.678;2023-03-14T08:43:30;98727.44;;;14.97;58.58
30073;BME280;16897;52.422;13.678;2023-03-14T08:47:32;98731.88;;;15.05;58.44
30073;BME280;16897;52.422;13.678;2023-03-14T08:51:34;98737.13;;;15.05;58.54
30073;BME280;16897;52.422;13.678;2023-03-14T08:55:35;98746.31;;;15.09;58.44
30073;BME280;16897;52.422;13.678;2023-03-14T08:59:37;98737.63;;;15.09;58.47
30073;BME280;16897;52.422;13.678;2023-03-14T09:03:39;98724.31;;;15.02;58.29
30073;BME280;16897;52.422;13.678;2023-03-14T09:07:41;98692.91;;;14.84;58.50
30073;BME280;16897;52.422;13.678;2023-03-14T09:11:43;98733.38;;;15.16;58.46
30073;BME280;16897;52.422;13.678;2023-03-14T09:15:44;98730.06;;;15.14;58.39
30073;BME280;16897;52.422;13.678;2023-03-14T09:19:45;98730.06;;;15.14;58.32
30073;BME280;16897;52.422;13.678;2023-03-14T09:23:47;98727.13;;;15.17;58.37
30073;BME280;16897;52.422;13.678;2023-03-14T09:27:48;98741.41;;;15.31;58.26
30073;BME280;16897;52.422;13.678;2023-03-14T09:31:50;98722.19;;;15.30;58.16
30073;BME280;16897;52.422;13.678;2023-03-14T09:35:51;98686.38;;;15.13;58.28
30073;BME280;16897;52.422;13.678;2023-03-14T09:39:53;98733.03;;;15.52;58.23
30073;BME280;16897;52.422;13.678;2023-03-14T09:48:04;98743.06;;;15.81;58.34
30073;BME280;16897;52.422;13.678;2023-03-14T09:56:29;98721.63;;;16.00;58.37
30073;BME280;16897;52.422;13.678;2023-03-14T10:00:32;98722.75;;;16.14;58.54
30073;BME280;16897;52.422;13.678;2023-03-14T10:04:35;98715.78;;;16.29;58.25
30073;BME280;16897;52.422;13.678;2023-03-14T10:08:41;98732.56;;;16.36;58.05
30073;BME280;16897;52.422;13.678;2023-03-14T10:12:45;98715.44;;;16.32;57.86
30073;BME280;16897;52.422;13.678;2023-03-14T10:16:47;98737.78;;;16.45;58.04
30073;BME280;16897;52.422;13.678;2023-03-14T10:20:48;98734.97;;;16.46;57.89
30073;BME280;16897;52.422;13.678;2023-03-14T10:24:53;98702.66;;;16.21;57.79
30073;BME280;16897;52.422;13.678;2023-03-14T10:29:04;98745.03;;;16.43;57.99
30073;BME280;16897;52.422;13.678;2023-03-14T10:33:22;98750.97;;;16.45;57.83
30073;BME280;16897;52.422;13.678;2023-03-14T10:37:25;98745.84;;;16.43;57.69
30073;BME280;16897;52.422;13.678;2023-03-14T10:41:30;98726.44;;;16.36;57.84
30073;BME280;16897;52.422;13.678;2023-03-14T10:45:42;98740.75;;;16.42;57.67
30073;BME280;16897;52.422;13.678;2023-03-14T10:49:44;98743.38;;;16.42;57.75
30073;BME280;16897;52.422;13.678;2023-03-14T10:53:47;98744.38;;;16.41;57.77
30073;BME280;16897;52.422;13.678;2023-03-14T10:57:49;98731.25;;;16.32;57.67
30073;BME280;16897;52.422;13.678;2023-03-14T11:02:03;98737.28;;;16.41;57.87
30073;BME280;16897;52.422;13.678;2023-03-14T11:06:22;98730.97;;;16.19;57.93
30073;BME280;16897;52.422;13.678;2023-03-14T11:10:38;98750.34;;;16.34;57.59
30073;BME280;16897;52.422;13.678;2023-03-14T11:14:46;98743.09;;;16.36;57.51
30073;BME280;16897;52.422;13.678;2023-03-14T11:23:18;98732.91;;;16.25;57.24
30073;BME280;16897;52.422;13.678;2023-03-14T11:27:23;98721.78;;;16.15;57.25
30073;BME280;16897;52.422;13.678;2023-03-14T11:31:29;98715.88;;;16.05;57.49
30073;BME280;16897;52.422;13.678;2023-03-14T11:35:37;98747.22;;;16.23;57.61
30073;BME280;16897;52.422;13.678;2023-03-14T11:39:46;98704.88;;;15.93;57.40
30073;BME280;16897;52.422;13.678;2023-03-14T11:43:52;98741.16;;;16.22;57.33
30073;BME280;16897;52.422;13.678;2023-03-14T11:52:55;98736.09;;;16.12;57.41
30073;BME280;16897;52.422;13.678;2023-03-14T11:57:11;98745.59;;;16.22;57.25
30073;BME280;16897;52.422;13.678;2023-03-14T12:01:14;98737.22;;;16.18;57.24
30073;BME280;16897;52.422;13.678;2023-03-14T12:05:37;98730.63;;;16.22;57.10
30073;BME280;16897;52.422;13.678;2023-03-14T12:09:41;98727.19;;;16.13;57.12
30073;BME280;16897;52.422;13.678;2023-03-14T12:13:49;98718.28;;;16.14;57.16
30073;BME280;16897;52.422;13.678;2023-03-14T12:17:55;98720.44;;;16.11;56.91
30073;BME280;16897;52.422;13.678;2023-03-14T12:22:02;98699.41;;;16.03;57.21
30073;BME280;16897;52.422;13.678;2023-03-14T12:30:25;98691.84;;;16.08;57.15
30073;BME280;16897;52.422;13.678;2023-03-14T12:34:31;98686.41;;;16.09;57.07
30073;BME280;16897;52.422;13.678;2023-03-14T12:42:43;98704.94;;;16.24;56.97
30073;BME280;16897;52.422;13.678;2023-03-14T12:46:46;98688.81;;;16.19;56.94
30073;BME280;16897;52.422;13.678;2023-03-14T12:50:56;98680.44;;;16.15;57.02
30073;BME280;16897;52.422;13.678;2023-03-14T13:03:40;98664.97;;;16.21;57.02
30073;BME280;16897;52.422;13.678;2023-03-14T13:11:49;98683.47;;;16.35;56.92
30073;BME280;16897;52.422;13.678;2023-03-14T13:15:55;98665.09;;;16.27;57.05
30073;BME280;16897;52.422;13.678;2023-03-14T13:20:16;98665.69;;;16.37;56.97
30073;BME280;16897;52.422;13.678;2023-03-14T13:24:27;98651.88;;;16.35;56.87
30073;BME280;16897;52.422;13.678;2023-03-14T13:28:29;98647.25;;;16.37;56.97
30073;BME280;16897;52.422;13.678;2023-03-14T13:32:31;98628.22;;;16.27;56.93
30073;BME280;16897;52.422;13.678;2023-03-14T13:36:35;98652.19;;;16.41;56.75
30073;BME280;16897;52.422;13.678;2023-03-14T13:40:37;98670.25;;;16.44;56.68
30073;BME280;16897;52.422;13.678;2023-03-14T13:44:39;98678.34;;;16.42;56.76
30073;BME280;16897;52.422;13.678;2023-03-14T13:49:06;98672.00;;;16.28;56.81
30073;BME280;16897;52.422;13.678;2023-03-14T13:53:10;98691.06;;;16.30;56.65
30073;BME280;16897;52.422;13.678;2023-03-14T13:57:12;98660.59;;;16.05;56.69
30073;BME280;16897;52.422;13.678;2023-03-14T14:01:24;98672.41;;;16.09;56.64
30073;BME280;16897;52.422;13.678;2023-03-14T14:05:28;98669.75;;;16.09;57.02
30073;BME280;16897;52.422;13.678;2023-03-14T14:09:37;98662.88;;;16.08;56.82
30073;BME280;16897;52.422;13.678;2023-03-14T14:13:39;98653.03;;;16.02;56.75
30073;BME280;16897;52.422;13.678;2023-03-14T14:17:58;98617.22;;;15.84;56.64
30073;BME280;16897;52.422;13.678;2023-03-14T14:22:02;98649.41;;;16.03;56.87
30073;BME280;16897;52.422;13.678;2023-03-14T14:26:05;98638.88;;;16.03;56.61
30073;BME280;16897;52.422;13.678;2023-03-14T14:30:29;98659.84;;;16.19;56.79
30073;BME280;16897;52.422;13.678;2023-03-14T14:34:38;98647.84;;;16.17;56.74
30073;BME280;16897;52.422;13.678;2023-03-14T14:43:27;98649.19;;;16.12;56.77
30073;BME280;16897;52.422;13.678;2023-03-14T14:47:29;98649.00;;;16.14;56.71
30073;BME280;16897;52.422;13.678;2023-03-14T14:51:33;98648.66;;;16.17;56.59
30073;BME280;16897;52.422;13.678;2023-03-14T14:55:40;98637.34;;;16.08;56.80
30073;BME280;16897;52.422;13.678;2023-03-14T14:59:42;98609.44;;;15.99;56.84
30073;BME280;16897;52.422;13.678;2023-03-14T15:03:50;98619.44;;;16.04;56.85
30073;BME280;16897;52.422;13.678;2023-03-14T15:07:52;98610.56;;;16.05;56.64
30073;BME280;16897;52.422;13.678;2023-03-14T15:11:54;98617.94;;;16.09;56.76
30073;BME280;16897;52.422;13.678;2023-03-14T15:15:55;98615.13;;;16.11;56.77
30073;BME280;16897;52.422;13.678;2023-03-14T15:19:57;98625.31;;;16.14;56.68
30073;BME280;16897;52.422;13.678;2023-03-14T15:23:59;98630.56;;;16.14;56.73
30073;BME280;16897;52.422;13.678;2023-03-14T15:28:01;98623.06;;;16.03;56.49
30073;BME280;16897;52.422;13.678;2023-03-14T15:32:02;98643.28;;;16.10;56.74
30073;BME280;16897;52.422;13.678;2023-03-14T15:36:05;98657.25;;;16.11;56.64
30073;BME280;16897;52.422;13.678;2023-03-14T15:40:09;98650.06;;;16.05;56.67
30073;BME280;16897;52.422;13.678;2023-03-14T15:44:14;98764.91;;;15.98;56.51
30073;BME280;16897;52.422;13.678;2023-03-14T15:48:18;98796.50;;;15.65;56.37
30073;BME280;16897;52.422;13.678;2023-03-14T15:52:19;98884.28;;;15.31;56.38
30073;BME280;16897;52.422;13.678;2023-03-14T15:56:21;98928.09;;;14.80;56.14
30073;BME280;16897;52.422;13.678;2023-03-14T16:00:26;98946.06;;;14.23;56.17
30073;BME280;16897;52.422;13.678;2023-03-14T16:04:27;98939.03;;;13.42;56.20
30073;BME280;16897;52.422;13.678;2023-03-14T16:08:29;99019.84;;;13.19;56.32
30073;BME280;16897;52.422;13.678;2023-03-14T16:12:31;99033.63;;;12.64;56.28
30073;BME280;16897;52.422;13.678;2023-03-14T16:16:33;99058.41;;;12.11;56.34
30073;BME280;16897;52.422;13.678;2023-03-14T16:20:34;99059.09;;;11.63;56.57
30073;BME280;16897;52.422;13.678;2023-03-14T16:24:36;99115.19;;;11.28;56.33
30073;BME280;16897;52.422;13.678;2023-03-14T16:28:37;99157.06;;;10.96;56.45
30073;BME280;16897;52.422;13.678;2023-03-14T16:32:39;99171.69;;;10.55;56.27
30073;BME280;16897;52.422;13.678;2023-03-14T16:36:41;99193.81;;;10.29;56.35
30073;BME280;16897;52.422;13.678;2023-03-14T16:40:42;99223.06;;;9.87;56.30
30073;BME280;16897;52.422;13.678;2023-03-14T16:44:43;99247.56;;;9.62;56.27
30073;BME280;16897;52.422;13.678;2023-03-14T16:48:45;99273.66;;;9.38;56.58
30073;BME280;16897;52.422;13.678;2023-03-14T16:52:46;99294.94;;;9.21;56.40
30073;BME280;16897;52.422;13.678;2023-03-14T16:56:49;99304.97;;;9.01;56.32
30073;BME280;16897;52.422;13.678;2023-03-14T17:00:51;99316.53;;;8.73;56.40
30073;BME280;16897;52.422;13.678;2023-03-14T17:04:52;99361.31;;;8.66;56.36
30073;BME280;16897;52.422;13.678;2023-03-14T17:08:55;99397.94;;;8.62;56.33
30073;BME280;16897;52.422;13.678;2023-03-14T17:12:56;99406.03;;;8.32;56.05
30073;BME280;16897;52.422;13.678;2023-03-14T17:16:58;99423.19;;;8.22;56.26
30073;BME280;16897;52.422;13.678;2023-03-14T17:20:59;99448.97;;;8.25;56.34
30073;BME280;16897;52.422;13.678;2023-03-14T17:25:01;99471.72;;;8.09;56.24
30073;BME280;16897;52.422;13.678;2023-03-14T17:29:02;99497.53;;;8.12;56.17
30073;BME280;16897;52.422;13.678;2023-03-14T17:33:04;99471.81;;;7.80;56.43
30073;BME280;16897;52.422;13.678;2023-03-14T17:37:06;99504.03;;;7.78;56.33
30073;BME280;16897;52.422;13.678;2023-03-14T17:41:11;99503.06;;;7.66;56.26
30073;BME280;16897;52.422;13.678;2023-03-14T17:45:13;99534.41;;;7.77;56.40
30073;BME280;16897;52.422;13.678;2023-03-14T17:49:14;99562.69;;;7.82;56.36
30073;BME280;16897;52.422;13.678;2023-03-14T17:53:16;99562.06;;;7.64;56.58
30073;BME280;16897;52.422;13.678;2023-03-14T17:57:17;99554.59;;;7.59;56.37
30073;BME280;16897;52.422;13.678;2023-03-14T18:01:19;99585.81;;;7.72;56.36
30073;BME280;16897;52.422;13.678;2023-03-14T18:05:21;99611.09;;;7.70;56.43
30073;BME280;16897;52.422;13.678;2023-03-14T18:09:23;99630.38;;;7.66;56.73
30073;BME280;16897;52.422;13.678;2023-03-14T18:13:24;99662.50;;;7.65;56.71
30073;BME280;16897;52.422;13.678;2023-03-14T18:17:26;99659.50;;;7.57;56.56
30073;BME280;16897;52.422;13.678;2023-03-14T18:21:27;99667.75;;;7.49;56.63
30073;BME280;16897;52.422;13.678;2023-03-14T18:25:30;99688.34;;;7.38;56.64
30073;BME280;16897;52.422;13.678;2023-03-14T18:29:32;99706.53;;;7.52;56.87
30073;BME280;16897;52.422;13.678;2023-03-14T18:33:34;99698.66;;;7.53;56.64
30073;BME280;16897;52.422;13.678;2023-03-14T18:37:37;99703.28;;;7.48;56.60
30073;BME280;16897;52.422;13.678;2023-03-14T18:41:39;99715.59;;;7.45;56.68
30073;BME280;16897;52.422;13.678;2023-03-14T18:45:40;99735.66;;;7.43;56.76
30073;BME280;16897;52.422;13.678;2023-03-14T18:49:42;99738.59;;;7.37;56.99
30073;BME280;16897;52.422;13.678;2023-03-14T18:53:44;99742.06;;;7.37;56.79
30073;BME280;16897;52.422;13.678;2023-03-14T18:57:45;99769.69;;;7.38;56.97
30073;BME280;16897;52.422;13.678;2023-03-14T19:01:47;99737.34;;;7.14;56.88
30073;BME280;16897;52.422;13.678;2023-03-14T19:05:48;99791.22;;;7.40;56.77
30073;BME280;16897;52.422;13.678;2023-03-14T19:09:49;99803.53;;;7.37;57.10
30073;BME280;16897;52.422;13.678;2023-03-14T19:13:51;99820.97;;;7.35;56.97
30073;BME280;16897;52.422;13.678;2023-03-14T19:17:54;99794.84;;;7.22;57.04
30073;BME280;16897;52.422;13.678;2023-03-14T19:21:55;99842.66;;;7.34;57.11
30073;BME280;16897;52.422;13.678;2023-03-14T19:25:57;99845.19;;;7.35;56.97
30073;BME280;16897;52.422;13.678;2023-03-14T19:29:58;99801.06;;;7.03;57.10
30073;BME280;16897;52.422;13.678;2023-03-14T19:34:00;99837.28;;;7.21;57.09
30073;BME280;16897;52.422;13.678;2023-03-14T19:38:01;99853.22;;;7.15;57.16
30073;BME280;16897;52.422;13.678;2023-03-14T19:42:03;99874.75;;;7.17;57.26
30073;BME280;16897;52.422;13.678;2023-03-14T19:46:04;99877.69;;;7.11;57.25
30073;BME280;16897;52.422;13.678;2023-03-14T19:50:06;99904.06;;;7.19;57.23
30073;BME280;16897;52.422;13.678;2023-03-14T19:54:08;99905.81;;;7.18;56.96
30073;BME280;16897;52.422;13.678;2023-03-14T19:58:10;99849.19;;;6.77;57.08
30073;BME280;16897;52.422;13.678;2023-03-14T20:02:15;99929.63;;;7.11;56.96
30073;BME280;16897;52.422;13.678;2023-03-14T20:06:17;99941.91;;;7.07;57.30
30073;BME280;16897;52.422;13.678;2023-03-14T20:10:20;99968.56;;;7.11;57.13
30073;BME280;16897;52.422;13.678;2023-03-14T20:14:24;99951.78;;;7.00;57.21
30073;BME280;16897;52.422;13.678;2023-03-14T20:18:26;99967.34;;;7.00;57.16
30073;BME280;16897;52.422;13.678;2023-03-14T20:22:28;99987.91;;;7.05;57.17
30073;BME280;16897;52.422;13.678;2023-03-14T20:26:33;99996.69;;;7.02;57.17
30073;BME280;16897;52.422;13.678;2023-03-14T20:30:35;100003.88;;;6.97;57.35
30073;BME280;16897;52.422;13.678;2023-03-14T20:34:36;99959.28;;;6.56;57.40
30073;BME280;16897;52.422;13.678;2023-03-14T20:38:39;99989.00;;;6.66;57.21
30073;BME280;16897;52.422;13.678;2023-03-14T20:42:41;100047.44;;;6.91;57.17
30073;BME280;16897;52.422;13.678;2023-03-14T20:46:42;100051.28;;;6.83;57.21
30073;BME280;16897;52.422;13.678;2023-03-14T20:50:45;100062.50;;;6.84;57.20
30073;BME280;16897;52.422;13.678;2023-03-14T20:54:48;100068.69;;;6.81;57.23
30073;BME280;16897;52.422;13.678;2023-03-14T20:58:49;100073.19;;;6.78;57.22
30073;BME280;16897;52.422;13.678;2023-03-14T21:02:51;100070.13;;;6.70;57.26
30073;BME280;16897;52.422;13.678;2023-03-14T21:06:54;100040.09;;;6.48;57.23
30073;BME280;16897;52.422;13.678;2023-03-14T21:10:56;100079.44;;;6.56;57.34
30073;BME280;16897;52.422;13.678;2023-03-14T21:14:57;100097.44;;;6.59;57.39
30073;BME280;16897;52.422;13.678;2023-03-14T21:18:59;100093.78;;;6.46;57.27
30073;BME280;16897;52.422;13.678;2023-03-14T21:23:01;100103.31;;;6.46;57.47
30073;BME280;16897;52.422;13.678;2023-03-14T21:27:04;100114.81;;;6.40;57.49
30073;BME280;16897;52.422;13.678;2023-03-14T21:31:06;100129.38;;;6.42;57.28
30073;BME280;16897;52.422;13.678;2023-03-14T21:35:09;100121.19;;;6.33;57.40
30073;BME280;16897;52.422;13.678;2023-03-14T21:39:11;100135.31;;;6.27;57.27
30073;BME280;16897;52.422;13.678;2023-03-14T21:43:15;100145.94;;;6.21;57.31
30073;BME280;16897;52.422;13.678;2023-03-14T21:47:19;100164.72;;;6.26;57.22
30073;BME280;16897;52.422;13.678;2023-03-14T21:51:23;100088.56;;;5.72;57.43
30073;BME280;16897;52.422;13.678;2023-03-14T21:55:30;100160.16;;;6.12;57.46
30073;BME280;16897;52.422;13.678;2023-03-14T21:59:34;100187.41;;;6.21;57.28
30073;BME280;16897;52.422;13.678;2023-03-14T22:03:36;100190.94;;;6.20;57.44
30073;BME280;16897;52.422;13.678;2023-03-14T22:07:39;100188.44;;;6.18;57.25
30073;BME280;16897;52.422;13.678;2023-03-14T22:11:41;100203.19;;;6.16;57.38